TimeCDT,TemperatureF,Dew PointF,Humidity,Sea Level PressureIn,VisibilityMPH,Wind Direction,Wind SpeedMPH,Gust SpeedMPH,PrecipitationIn,Events,Conditions,WindDirDegrees,DateUTC
12:12 AM,46.4,30.2,53,29.87,10.0,Calm,Calm,-,N/A,,Clear,0,2012-10-03 05:12:00
12:32 AM,48.2,32.0,54,29.87,10.0,South,3.5,-,N/A,,Clear,180,2012-10-03 05:32:00
12:53 AM,48.2,33.8,58,29.86,10.0,South,4.6,-,N/A,,Clear,170,2012-10-03 05:53:00
1:12 AM,48.2,30.2,50,29.86,10.0,South,3.5,-,N/A,,Clear,180,2012-10-03 06:12:00
1:32 AM,50.0,30.2,47,29.87,10.0,South,3.5,-,N/A,,Clear,180,2012-10-03 06:32:00
1:52 AM,50.0,30.2,47,29.87,10.0,South,3.5,-,N/A,,Clear,180,2012-10-03 06:52:00
2:12 AM,46.4,30.2,53,29.87,10.0,South,4.6,-,N/A,,Clear,180,2012-10-03 07:12:00
2:33 AM,48.2,30.2,50,29.87,10.0,South,4.6,-,N/A,,Clear,180,2012-10-03 07:33:00
2:53 AM,46.4,32.0,57,29.86,10.0,South,3.5,-,N/A,,Clear,180,2012-10-03 07:53:00
3:12 AM,46.4,30.2,53,29.87,10.0,South,4.6,-,N/A,,Clear,190,2012-10-03 08:12:00
3:33 AM,46.4,30.2,53,29.86,10.0,South,6.9,-,N/A,,Clear,180,2012-10-03 08:33:00
3:53 AM,46.4,30.2,53,29.86,10.0,South,5.8,-,N/A,,Clear,180,2012-10-03 08:53:00
4:12 AM,44.6,30.2,57,29.87,10.0,South,4.6,-,N/A,,Clear,190,2012-10-03 09:12:00
4:33 AM,46.4,30.2,53,29.87,10.0,South,3.5,-,N/A,,Clear,180,2012-10-03 09:33:00
4:53 AM,46.4,30.2,53,29.87,10.0,South,4.6,-,N/A,,Clear,180,2012-10-03 09:53:00
5:12 AM,42.8,28.4,57,29.87,10.0,Calm,Calm,-,N/A,,Clear,0,2012-10-03 10:12:00
5:33 AM,41.0,30.2,65,29.88,10.0,Calm,Calm,-,N/A,,Clear,0,2012-10-03 10:33:00
5:53 AM,42.8,30.2,61,29.88,10.0,Calm,Calm,-,N/A,,Clear,0,2012-10-03 10:53:00
6:12 AM,44.6,30.2,57,29.88,10.0,South,3.5,-,N/A,,Clear,180,2012-10-03 11:12:00
6:33 AM,44.6,30.2,57,29.89,10.0,South,3.5,-,N/A,,Clear,170,2012-10-03 11:33:00
6:52 AM,44.6,32.0,61,29.88,10.0,South,5.8,-,N/A,,Clear,180,2012-10-03 11:52:00
7:13 AM,44.6,32.0,61,29.88,10.0,South,4.6,-,N/A,,Clear,170,2012-10-03 12:13:00
7:32 AM,46.4,32.0,57,29.89,10.0,South,3.5,-,N/A,,Clear,170,2012-10-03 12:32:00
7:52 AM,44.6,32.0,61,29.89,10.0,South,3.5,-,N/A,,Clear,190,2012-10-03 12:52:00
8:13 AM,46.4,33.8,62,29.88,10.0,South,3.5,-,N/A,,Clear,180,2012-10-03 13:13:00
8:32 AM,50.0,33.8,54,29.88,10.0,Calm,Calm,-,N/A,,Clear,0,2012-10-03 13:32:00
8:52 AM,53.6,33.8,47,29.87,10.0,Calm,Calm,-,N/A,,Clear,0,2012-10-03 13:52:00
9:13 AM,57.2,32.0,38,29.88,10.0,South,3.5,-,N/A,,Clear,180,2012-10-03 14:13:00
9:32 AM,60.8,30.2,31,29.88,10.0,South,5.8,-,N/A,,Clear,170,2012-10-03 14:32:00
9:52 AM,62.6,30.2,30,29.88,10.0,South,6.9,-,N/A,,Clear,180,2012-10-03 14:52:00
10:13 AM,66.2,30.2,26,29.87,10.0,South,6.9,-,N/A,,Clear,180,2012-10-03 15:13:00
10:32 AM,69.8,28.4,21,29.87,10.0,South,12.7,-,N/A,,Clear,180,2012-10-03 15:32:00
10:53 AM,71.6,28.4,20,29.87,10.0,South,11.5,-,N/A,,Clear,170,2012-10-03 15:53:00
11:13 AM,71.6,28.4,20,29.86,10.0,South,12.7,17.3,N/A,,Clear,170,2012-10-03 16:13:00
11:32 AM,71.6,26.6,19,29.86,10.0,South,15.0,-,N/A,,Clear,190,2012-10-03 16:32:00
11:53 AM,73.4,28.4,19,29.85,10.0,SSE,16.1,21.9,N/A,,Clear,160,2012-10-03 16:53:00
12:13 PM,73.4,26.6,18,29.85,10.0,SSE,13.8,20.7,N/A,,Clear,160,2012-10-03 17:13:00
12:32 PM,73.4,26.6,18,29.84,10.0,South,11.5,21.9,N/A,,Clear,170,2012-10-03 17:32:00
12:53 PM,73.4,26.6,18,29.84,10.0,SSE,12.7,24.2,N/A,,Clear,160,2012-10-03 17:53:00
1:12 PM,75.2,24.8,15,29.82,10.0,SSE,16.1,25.3,N/A,,Clear,150,2012-10-03 18:12:00
1:32 PM,75.2,24.8,15,29.82,10.0,SSE,17.3,20.7,N/A,,Clear,150,2012-10-03 18:32:00
1:53 PM,75.2,24.8,15,29.80,10.0,SE,19.6,26.5,N/A,,Clear,140,2012-10-03 18:53:00
2:12 PM,75.2,26.6,17,29.80,10.0,South,12.7,26.5,N/A,,Clear,170,2012-10-03 19:12:00
2:32 PM,75.2,24.8,15,29.79,10.0,South,17.3,21.9,N/A,,Clear,170,2012-10-03 19:32:00
2:53 PM,77.0,26.6,16,29.79,10.0,South,17.3,23.0,N/A,,Clear,170,2012-10-03 19:53:00
3:12 PM,77.0,24.8,14,29.78,10.0,South,16.1,23.0,N/A,,Clear,170,2012-10-03 20:12:00
3:32 PM,78.8,24.8,14,29.78,10.0,SSE,20.7,24.2,N/A,,Clear,150,2012-10-03 20:32:00
3:53 PM,78.8,21.2,12,29.78,10.0,South,18.4,25.3,N/A,,Clear,170,2012-10-03 20:53:00
4:12 PM,77.0,21.2,12,29.78,10.0,SSE,18.4,27.6,N/A,,Clear,160,2012-10-03 21:12:00
4:32 PM,78.8,23.0,13,29.77,10.0,South,15.0,19.6,N/A,,Clear,170,2012-10-03 21:32:00
4:53 PM,75.2,26.6,17,29.78,10.0,SSE,18.4,23.0,N/A,,Clear,150,2012-10-03 21:53:00
5:12 PM,75.2,28.4,18,29.77,10.0,SSE,13.8,19.6,N/A,,Clear,160,2012-10-03 22:12:00
5:32 PM,73.4,28.4,19,29.78,10.0,SSE,11.5,16.1,N/A,,Clear,160,2012-10-03 22:32:00
5:53 PM,75.2,28.4,18,29.78,10.0,SSE,17.3,20.7,N/A,,Clear,160,2012-10-03 22:53:00
6:12 PM,73.4,28.4,19,29.79,10.0,SSE,10.4,16.1,N/A,,Clear,160,2012-10-03 23:12:00
6:32 PM,73.4,28.4,19,29.80,10.0,SSE,11.5,-,N/A,,Clear,160,2012-10-03 23:32:00
6:53 PM,71.6,30.2,22,29.80,10.0,SSE,9.2,-,N/A,,Clear,150,2012-10-03 23:53:00
7:12 PM,69.8,30.2,23,29.81,10.0,SSE,8.1,-,N/A,,Clear,150,2012-10-04 00:12:00
7:32 PM,68.0,30.2,24,29.81,10.0,SE,8.1,-,N/A,,Clear,140,2012-10-04 00:32:00
7:53 PM,66.2,30.2,26,29.81,10.0,SE,8.1,-,N/A,,Clear,140,2012-10-04 00:53:00
8:12 PM,66.2,30.2,26,29.81,10.0,SE,9.2,-,N/A,,Clear,140,2012-10-04 01:12:00
8:32 PM,66.2,30.2,26,29.80,10.0,SE,9.2,-,N/A,,Clear,140,2012-10-04 01:32:00
8:53 PM,66.2,30.2,26,29.80,10.0,SSE,10.4,-,N/A,,Clear,150,2012-10-04 01:53:00
9:12 PM,66.2,30.2,26,29.81,10.0,SSE,11.5,-,N/A,,Clear,150,2012-10-04 02:12:00
9:32 PM,66.2,32.0,28,29.81,10.0,SSE,12.7,-,N/A,,Clear,150,2012-10-04 02:32:00
9:53 PM,64.4,30.2,28,29.81,10.0,SSE,11.5,-,N/A,,Mostly Cloudy,150,2012-10-04 02:53:00
10:12 PM,64.4,32.0,30,29.80,10.0,SSE,11.5,-,N/A,,Scattered Clouds,150,2012-10-04 03:12:00
10:32 PM,64.4,33.8,32,29.80,10.0,SSE,13.8,-,N/A,,Clear,150,2012-10-04 03:32:00
10:53 PM,66.2,33.8,30,29.79,10.0,SSE,13.8,17.3,N/A,,Clear,160,2012-10-04 03:53:00
11:12 PM,64.4,33.8,32,29.79,10.0,South,12.7,17.3,N/A,,Clear,170,2012-10-04 04:12:00
11:32 PM,64.4,33.8,32,29.78,10.0,South,11.5,20.7,N/A,,Clear,170,2012-10-04 04:32:00
11:53 PM,64.4,33.8,32,29.77,10.0,South,17.3,21.9,N/A,,Clear,180,2012-10-04 04:53:00